Oak City, Utah
Current Conditions -  °F | °C
As of 3:10 PM on Monday 22 Dec 2014 (Local Time) from KDTA Reporting Station
Scattered Clouds Scattered Clouds  
Wind Chill: 36°   Ceiling: Unl
Heat Index: 45°   Visibility: 10mi
Dew Point: 37°   Wind: 22mph
Humidity: 73%   Direction: 350°N
Pressure: 30.02"   Gusts: 32mph
Location:  39.37°N, 112.34°W
Report Text: KDTA 222210Z AUTO 35019G28KT 10SM SCT050 SCT070 SCT080 07/03 A3002 RMK AO1 T00700025
Loading
Personal Weather Stations






























Interactive Weather Map New forecast layout! Learn more

10-Day Weather Forecast

Advertisements
Track Severe Weather on mobile